Livingston, Illinois
Current Conditions -  °F | °C
As of 12:15 PM on Friday 28 Nov 2014 (Local Time) from K3LF Reporting Station
Clear Clear  
Wind Chill: 23°   Ceiling: Unl
Heat Index: 35°   Visibility: 10mi
Dew Point: 28°   Wind: 23mph
Humidity: 76%   Direction: 160°SSE
Pressure: 30.07"   Gusts: 28mph
Location:  38.97°N, 89.76°W
Report Text: K3LF 281815Z AUTO 16020G24KT 10SM CLR 02/M02 A3007 RMK AO2 T00171021
Loading
Personal Weather Stations






























Interactive Weather Map New forecast layout! Learn more

10-Day Weather Forecast

Advertisements
Track Severe Weather on mobile